createdAt,value
2018-12-19T00:01:40.059Z,14.95
2018-12-19T00:04:07.651Z,14.40
2018-12-19T00:06:35.283Z,16.10
2018-12-19T00:09:04.876Z,15.18
2018-12-19T00:11:32.483Z,16.35
2018-12-19T00:14:00.071Z,14.00
2018-12-19T00:16:27.647Z,16.62
2018-12-19T00:18:55.279Z,16.60
2018-12-19T00:21:22.843Z,15.10
2018-12-19T00:23:50.448Z,15.72
2018-12-19T00:26:18.050Z,15.53
2018-12-19T00:28:45.667Z,14.95
2018-12-19T00:31:13.242Z,13.88
2018-12-19T00:33:40.839Z,13.65
2018-12-19T00:36:08.453Z,16.45
2018-12-19T00:38:36.053Z,14.30
2018-12-19T00:41:03.676Z,15.85
2018-12-19T00:43:31.299Z,13.45
2018-12-19T00:45:58.873Z,13.30
2018-12-19T00:48:26.468Z,16.50
2018-12-19T00:50:54.078Z,14.53
2018-12-19T00:53:21.630Z,13.90
2018-12-19T00:55:49.265Z,14.35
2018-12-19T00:58:16.829Z,14.38
2018-12-19T01:00:44.420Z,15.32
2018-12-19T01:03:12.025Z,15.25
2018-12-19T01:05:39.583Z,16.20
2018-12-19T01:08:07.187Z,15.10
2018-12-19T01:10:34.767Z,15.95
2018-12-19T01:13:02.431Z,15.90
2018-12-19T01:15:30.024Z,17.23
2018-12-19T01:17:57.625Z,17.82
2018-12-19T01:20:25.238Z,16.65
2018-12-19T01:22:52.811Z,17.07
2018-12-19T01:25:20.500Z,15.45
2018-12-19T01:27:48.063Z,17.52
2018-12-19T01:30:15.688Z,16.57
2018-12-19T01:32:43.268Z,16.10
2018-12-19T01:35:10.870Z,16.52
2018-12-19T01:37:38.463Z,16.55
2018-12-19T01:40:06.742Z,16.17
2018-12-19T01:42:34.345Z,16.00
2018-12-19T01:45:01.903Z,17.40
2018-12-19T01:47:29.525Z,15.80
2018-12-19T01:49:57.098Z,17.40
2018-12-19T01:52:24.700Z,16.05
2018-12-19T01:54:52.273Z,16.02
2018-12-19T01:57:19.902Z,16.23
2018-12-19T01:59:47.467Z,17.00
2018-12-19T02:02:15.121Z,17.92
2018-12-19T02:04:42.738Z,16.10
2018-12-19T02:07:10.337Z,16.77
2018-12-19T02:09:37.929Z,16.40
2018-12-19T02:12:05.551Z,15.90
2018-12-19T02:14:34.265Z,16.85
2018-12-19T02:17:02.861Z,14.63
2018-12-19T02:19:30.573Z,15.58
2018-12-19T02:21:58.448Z,16.30
2018-12-19T02:24:26.241Z,17.05
2018-12-19T02:26:54.069Z,16.27
2018-12-19T02:29:21.783Z,15.80
2018-12-19T02:31:49.593Z,17.20
2018-12-19T02:34:22.130Z,16.48
2018-12-19T02:36:49.882Z,17.30
2018-12-19T02:39:17.707Z,17.17
2018-12-19T02:41:45.570Z,18.42
2018-12-19T02:44:13.268Z,17.52
2018-12-19T02:46:42.833Z,19.27
2018-12-19T02:49:10.626Z,18.40
2018-12-19T02:51:38.509Z,18.07
2018-12-19T02:54:06.332Z,20.80
2018-12-19T02:56:34.143Z,19.25
2018-12-19T02:59:01.957Z,20.30
2018-12-19T03:01:29.839Z,20.88
2018-12-19T03:03:57.707Z,21.70
2018-12-19T03:06:25.621Z,21.80
2018-12-19T03:08:53.323Z,21.68
2018-12-19T03:11:21.136Z,20.60
2018-12-19T03:13:51.473Z,19.80
2018-12-19T03:16:19.312Z,21.12
2018-12-19T03:18:47.982Z,21.07
2018-12-19T03:21:15.845Z,19.55
2018-12-19T03:23:43.653Z,20.90
2018-12-19T03:26:11.464Z,21.15
2018-12-19T03:28:39.336Z,21.30
2018-12-19T03:31:07.163Z,21.15
2018-12-19T03:33:35.942Z,21.33
2018-12-19T03:36:03.848Z,19.07
2018-12-19T03:38:31.675Z,23.67
2018-12-19T03:40:59.639Z,18.85
2018-12-19T03:43:27.420Z,20.72
2018-12-19T03:45:55.152Z,20.95
2018-12-19T03:51:25.252Z,20.75
2018-12-19T03:53:53.101Z,21.57
2018-12-19T03:56:20.880Z,19.17
2018-12-19T03:58:48.736Z,19.05
2018-12-19T04:01:16.646Z,20.90
2018-12-19T04:03:44.420Z,19.40
2018-12-19T04:06:15.654Z,18.65
2018-12-19T04:08:43.431Z,20.45
2018-12-19T04:11:12.265Z,19.37
2018-12-19T04:13:41.000Z,20.70
2018-12-19T04:16:08.775Z,18.70
2018-12-19T04:18:36.610Z,19.12
2018-12-19T04:21:04.602Z,18.65
2018-12-19T04:23:32.314Z,20.57
2018-12-19T04:26:00.073Z,18.87
2018-12-19T04:28:27.835Z,20.52
2018-12-19T04:30:55.626Z,21.17
2018-12-19T04:33:23.385Z,19.82
2018-12-19T04:35:51.167Z,20.92
2018-12-19T04:38:19.083Z,21.65
2018-12-19T04:40:46.816Z,19.57
2018-12-19T04:43:14.558Z,19.65
2018-12-19T04:45:42.309Z,21.30
2018-12-19T04:48:10.089Z,21.75
2018-12-19T04:50:38.662Z,20.37
2018-12-19T04:53:06.394Z,21.37
2018-12-19T04:55:34.162Z,21.35
2018-12-19T04:58:02.160Z,22.40
2018-12-19T05:00:29.893Z,19.45
2018-12-19T05:02:57.673Z,21.30
2018-12-19T05:05:25.948Z,20.50
2018-12-19T05:07:54.320Z,22.17
2018-12-19T05:10:22.949Z,23.55
2018-12-19T05:12:50.635Z,23.50
2018-12-19T05:15:18.352Z,22.50
2018-12-19T05:17:46.358Z,21.33
2018-12-19T05:20:14.106Z,20.00
2018-12-19T05:22:41.750Z,19.92
2018-12-19T05:25:14.547Z,22.02
2018-12-19T05:27:42.256Z,19.23
2018-12-19T05:30:10.360Z,20.85
2018-12-19T05:32:38.033Z,19.80
2018-12-19T05:35:06.365Z,22.45
2018-12-19T05:37:34.002Z,19.27
2018-12-19T05:40:01.650Z,21.05
2018-12-19T05:42:29.371Z,21.00
2018-12-19T05:44:57.043Z,18.82
2018-12-19T05:47:24.763Z,19.82
2018-12-19T05:49:53.481Z,21.77
2018-12-19T05:52:23.344Z,20.62
2018-12-19T05:54:53.088Z,20.10
2018-12-19T05:57:21.173Z,20.77
2018-12-19T05:59:50.311Z,21.05
2018-12-19T06:02:17.966Z,18.70
2018-12-19T06:04:45.693Z,20.60
2018-12-19T06:07:13.303Z,19.95
2018-12-19T06:09:40.935Z,20.45
2018-12-19T06:12:10.096Z,20.82
2018-12-19T06:14:37.827Z,21.62
2018-12-19T06:17:05.701Z,23.05
2018-12-19T06:19:33.466Z,21.77
2018-12-19T06:22:01.556Z,21.80
2018-12-19T06:24:29.259Z,21.45
2018-12-19T06:26:56.890Z,22.50
2018-12-19T06:29:24.629Z,23.45
2018-12-19T06:31:52.604Z,22.32
2018-12-19T06:34:20.180Z,23.38
2018-12-19T06:36:47.843Z,20.95
2018-12-19T06:39:15.395Z,22.52
2018-12-19T06:41:43.147Z,22.07
2018-12-19T06:44:10.921Z,22.87
2018-12-19T06:46:38.592Z,23.30
2018-12-19T06:49:06.321Z,24.92
2018-12-19T06:51:33.943Z,25.20
2018-12-19T06:54:01.626Z,24.00
2018-12-19T06:56:29.293Z,23.52
2018-12-19T06:58:57.026Z,22.77
2018-12-19T07:01:24.731Z,22.15
2018-12-19T07:03:52.706Z,20.82
2018-12-19T07:06:21.228Z,22.17
2018-12-19T07:08:49.133Z,22.15
2018-12-19T07:11:17.095Z,21.07
2018-12-19T07:13:44.843Z,23.22
2018-12-19T07:16:12.579Z,22.25
2018-12-19T07:18:40.292Z,23.00
2018-12-19T07:21:07.920Z,21.05
2018-12-19T07:23:36.380Z,21.30
2018-12-19T07:26:04.206Z,21.82
2018-12-19T07:28:31.801Z,20.82
2018-12-19T07:30:59.419Z,20.62
2018-12-19T07:33:27.217Z,22.50
2018-12-19T07:35:55.078Z,20.88
2018-12-19T07:38:22.688Z,21.12
2018-12-19T07:40:51.785Z,22.37
2018-12-19T07:43:19.519Z,21.95
2018-12-19T07:45:47.160Z,22.30
2018-12-19T07:48:15.023Z,22.20
2018-12-19T07:50:42.702Z,21.42
2018-12-19T07:53:10.782Z,22.13
2018-12-19T07:55:46.976Z,21.17
2018-12-19T07:58:14.627Z,21.97
2018-12-19T08:00:42.280Z,21.02
2018-12-19T08:03:09.887Z,23.38
2018-12-19T08:05:37.470Z,22.85
2018-12-19T08:08:05.104Z,23.60
2018-12-19T08:10:32.720Z,22.42
2018-12-19T08:13:00.966Z,23.50
2018-12-19T08:15:28.659Z,23.52
2018-12-19T08:17:56.263Z,25.45
2018-12-19T08:20:23.835Z,24.60
2018-12-19T08:22:52.039Z,26.35
2018-12-19T08:25:20.127Z,25.70
2018-12-19T08:27:47.753Z,24.18
2018-12-19T08:30:15.375Z,24.35
2018-12-19T08:32:42.966Z,22.82
2018-12-19T08:35:10.567Z,26.57
2018-12-19T08:37:38.211Z,25.57
2018-12-19T08:40:06.210Z,25.27
2018-12-19T08:42:33.977Z,27.32
2018-12-19T08:45:01.565Z,28.25
2018-12-19T08:47:29.157Z,27.45
2018-12-19T08:49:57.375Z,30.55
2018-12-19T08:52:24.990Z,29.55
2018-12-19T08:54:52.571Z,28.62
2018-12-19T08:57:20.139Z,28.42
2018-12-19T08:59:47.828Z,25.82
2018-12-19T09:02:15.797Z,27.02
2018-12-19T09:04:43.407Z,24.47
2018-12-19T09:07:10.993Z,26.55
2018-12-19T09:09:38.669Z,25.25
2018-12-19T09:12:06.307Z,23.45
2018-12-19T09:14:33.893Z,24.05
2018-12-19T09:17:01.856Z,26.10
2018-12-19T09:19:29.523Z,23.95
2018-12-19T09:21:57.332Z,24.92
2018-12-19T09:24:24.908Z,25.40
2018-12-19T09:26:52.514Z,26.00
2018-12-19T09:29:20.110Z,29.98
2018-12-19T09:31:47.758Z,25.62
2018-12-19T09:34:15.361Z,24.98
2018-12-19T09:36:42.930Z,22.52
2018-12-19T09:39:10.794Z,25.43
2018-12-19T09:41:38.556Z,24.67
2018-12-19T09:44:08.621Z,25.20
2018-12-19T09:46:36.411Z,22.50
2018-12-19T09:49:04.012Z,22.75
2018-12-19T09:51:31.683Z,21.70
2018-12-19T09:53:59.248Z,21.95
2018-12-19T09:56:26.808Z,23.32
2018-12-19T09:58:54.433Z,21.02
2018-12-19T10:01:22.058Z,23.50
2018-12-19T10:03:49.668Z,22.15
2018-12-19T10:06:17.252Z,23.55
2018-12-19T10:08:44.884Z,21.80
2018-12-19T10:11:18.610Z,23.47
2018-12-19T10:13:52.280Z,22.98
2018-12-19T10:16:19.928Z,24.63
2018-12-19T10:18:47.540Z,21.27
2018-12-19T10:21:15.148Z,21.57
2018-12-19T10:23:42.767Z,20.75
2018-12-19T10:26:12.703Z,21.45
2018-12-19T10:28:40.258Z,22.70
2018-12-19T10:31:07.911Z,25.10
2018-12-19T10:33:35.535Z,24.02
2018-12-19T10:36:03.251Z,26.73
2018-12-19T10:38:30.841Z,29.67
2018-12-19T10:40:58.408Z,29.23
2018-12-19T10:43:26.075Z,30.27
2018-12-19T10:45:53.642Z,31.52
2018-12-19T10:48:21.246Z,30.55
2018-12-19T10:50:48.855Z,30.00
2018-12-19T10:53:16.441Z,30.40
2018-12-19T10:55:44.088Z,29.27
2018-12-19T10:58:11.711Z,29.70
2018-12-19T11:00:45.091Z,28.55
2018-12-19T11:03:12.695Z,31.30
2018-12-19T11:05:40.256Z,28.60
2018-12-19T11:08:07.919Z,31.02
2018-12-19T11:10:36.387Z,31.00
2018-12-19T11:13:04.773Z,30.05
2018-12-19T11:15:32.395Z,30.95
2018-12-19T11:17:59.997Z,25.88
2018-12-19T11:20:27.621Z,27.22
2018-12-19T11:22:55.171Z,25.60
2018-12-19T11:25:22.779Z,27.20
2018-12-19T11:27:50.349Z,26.10
2018-12-19T11:30:17.971Z,25.75
2018-12-19T11:32:45.620Z,24.55
2018-12-19T11:35:13.235Z,24.87
2018-12-19T11:37:40.906Z,25.30
2018-12-19T11:40:08.696Z,27.75
2018-12-19T11:42:36.284Z,27.60
2018-12-19T11:45:04.903Z,27.35
2018-12-19T11:47:32.559Z,28.75
2018-12-19T11:50:00.176Z,31.45
2018-12-19T11:52:27.932Z,29.00
2018-12-19T11:54:55.573Z,26.75
2018-12-19T11:57:23.339Z,28.85
2018-12-19T11:59:51.118Z,30.70
2018-12-19T12:02:18.748Z,29.40
2018-12-19T12:04:46.410Z,28.00
2018-12-19T12:07:14.188Z,27.82
2018-12-19T12:09:41.878Z,30.57
2018-12-19T12:12:09.566Z,29.50
2018-12-19T12:14:37.176Z,33.40
2018-12-19T12:17:06.618Z,31.25
2018-12-19T12:19:34.208Z,32.35
2018-12-19T12:22:01.868Z,29.98
2018-12-19T12:24:29.463Z,31.30
2018-12-19T12:26:57.085Z,30.55
2018-12-19T12:29:24.645Z,30.15
2018-12-19T12:31:52.248Z,27.62
2018-12-19T12:34:19.820Z,27.22
2018-12-19T12:36:47.925Z,29.70
2018-12-19T12:39:15.794Z,28.65
2018-12-19T12:41:43.452Z,28.70
2018-12-19T12:44:11.107Z,27.73
2018-12-19T12:46:38.723Z,29.92
2018-12-19T12:49:06.397Z,30.12
2018-12-19T12:51:34.018Z,29.23
2018-12-19T12:54:01.893Z,28.85
2018-12-19T12:56:40.150Z,29.20
2018-12-19T12:59:15.598Z,28.98
2018-12-19T13:01:46.177Z,30.12
2018-12-19T13:04:13.791Z,28.02
2018-12-19T13:06:41.409Z,30.32
2018-12-19T13:09:09.186Z,28.95
2018-12-19T13:11:36.792Z,23.70
2018-12-19T13:14:04.488Z,29.77
2018-12-19T13:16:32.094Z,29.95
2018-12-19T13:19:00.660Z,29.42
2018-12-19T13:21:30.025Z,30.35
2018-12-19T13:23:57.710Z,28.83
2018-12-19T13:26:26.516Z,29.82
2018-12-19T13:28:54.106Z,31.37
2018-12-19T13:31:22.680Z,27.73
2018-12-19T13:33:51.130Z,27.55
2018-12-19T13:36:18.776Z,26.85
2018-12-19T13:38:46.461Z,26.33
2018-12-19T13:41:14.041Z,29.52
2018-12-19T13:43:41.706Z,29.75
2018-12-19T13:46:09.398Z,30.68
2018-12-19T13:48:36.986Z,31.97
2018-12-19T13:51:04.644Z,32.88
2018-12-19T13:53:32.222Z,31.12
2018-12-19T13:55:59.835Z,29.30
2018-12-19T13:58:27.525Z,31.07
2018-12-19T14:00:55.159Z,31.60
2018-12-19T14:03:22.869Z,28.62
2018-12-19T14:05:50.469Z,31.65
2018-12-19T14:08:18.069Z,29.87
2018-12-19T14:10:45.660Z,29.40
2018-12-19T14:13:18.117Z,30.80
2018-12-19T14:15:46.150Z,29.80
2018-12-19T14:18:13.775Z,31.07
2018-12-19T14:20:41.355Z,29.37
2018-12-19T14:23:08.955Z,30.00
2018-12-19T14:25:36.514Z,29.95
2018-12-19T14:28:04.114Z,29.35
2018-12-19T14:30:31.740Z,31.55
2018-12-19T14:32:59.311Z,28.38
2018-12-19T14:35:27.054Z,27.93
2018-12-19T14:37:54.608Z,29.30
2018-12-19T14:40:22.172Z,30.88
2018-12-19T14:42:49.783Z,31.10
2018-12-19T14:45:17.570Z,29.15
2018-12-19T14:47:45.426Z,31.95
2018-12-19T14:50:13.075Z,30.72
2018-12-19T14:52:41.461Z,31.40
2018-12-19T14:55:09.766Z,30.92
2018-12-19T14:57:37.371Z,29.98
2018-12-19T15:00:08.430Z,28.35
2018-12-19T15:02:36.068Z,29.65
2018-12-19T15:05:05.182Z,30.95
2018-12-19T15:07:32.761Z,32.33
2018-12-19T15:10:00.837Z,27.73
2018-12-19T15:12:28.435Z,30.05
2018-12-19T15:14:56.038Z,27.90
2018-12-19T15:17:23.865Z,28.35
2018-12-19T15:19:51.440Z,29.92
2018-12-19T15:22:19.054Z,30.00
2018-12-19T15:24:46.622Z,31.90
2018-12-19T15:27:14.254Z,27.90
2018-12-19T15:29:41.823Z,29.72
2018-12-19T15:32:09.418Z,28.75
2018-12-19T15:34:37.035Z,28.02
2018-12-19T15:37:04.667Z,27.77
2018-12-19T15:39:32.581Z,30.02
2018-12-19T15:42:00.210Z,27.95
2018-12-19T15:44:27.781Z,31.95
2018-12-19T15:46:55.407Z,27.02
2018-12-19T15:49:23.022Z,29.70
2018-12-19T15:51:50.594Z,28.73
2018-12-19T15:54:18.155Z,31.25
2018-12-19T15:56:45.764Z,28.95
2018-12-19T15:59:13.318Z,29.75
2018-12-19T16:01:40.974Z,30.45
2018-12-19T16:04:08.566Z,29.50
2018-12-19T16:06:36.131Z,28.42
2018-12-19T16:09:05.415Z,27.20
2018-12-19T16:11:33.040Z,28.32
2018-12-19T16:14:00.680Z,26.90
2018-12-19T16:16:28.255Z,29.15
2018-12-19T16:18:55.815Z,29.00
2018-12-19T16:21:23.427Z,28.12
2018-12-19T16:23:51.011Z,27.93
2018-12-19T16:26:18.724Z,29.02
2018-12-19T16:28:46.356Z,25.95
2018-12-19T16:31:13.942Z,27.65
2018-12-19T16:33:41.511Z,28.35
2018-12-19T16:36:09.123Z,28.52
2018-12-19T16:38:36.794Z,27.50
2018-12-19T16:41:04.370Z,28.95
2018-12-19T16:43:31.931Z,25.97
2018-12-19T16:45:59.542Z,28.83
2018-12-19T16:48:28.261Z,27.80
2018-12-19T16:50:55.855Z,26.73
2018-12-19T16:53:23.561Z,28.73
2018-12-19T16:55:51.299Z,28.57
2018-12-19T16:58:18.949Z,31.23
2018-12-19T17:00:46.676Z,28.60
2018-12-19T17:03:14.327Z,29.40
2018-12-19T17:05:42.107Z,30.32
2018-12-19T17:08:09.663Z,32.30
2018-12-19T17:10:37.574Z,30.92
2018-12-19T17:13:05.159Z,32.30
2018-12-19T17:15:32.782Z,33.28
2018-12-19T17:18:00.347Z,34.92
2018-12-19T17:20:27.923Z,33.70
2018-12-19T17:22:55.591Z,32.63
2018-12-19T17:25:23.167Z,31.82
2018-12-19T17:27:50.736Z,33.13
2018-12-19T17:30:18.357Z,35.40
2018-12-19T17:32:46.771Z,32.45
2018-12-19T17:35:14.603Z,32.05
2018-12-19T17:37:42.158Z,32.53
2018-12-19T17:40:09.750Z,31.73
2018-12-19T17:42:37.340Z,32.70
2018-12-19T17:45:05.630Z,33.25
2018-12-19T17:47:33.184Z,32.50
2018-12-19T17:50:00.970Z,31.60
2018-12-19T17:52:28.596Z,31.50
2018-12-19T17:54:56.161Z,30.37
2018-12-19T17:57:23.739Z,30.88
2018-12-19T17:59:51.347Z,31.23
2018-12-19T18:02:18.970Z,33.05
2018-12-19T18:04:46.535Z,33.13
2018-12-19T18:07:14.129Z,46.18
2018-12-19T18:09:41.719Z,41.18
2018-12-19T18:12:09.343Z,39.08
2018-12-19T18:14:36.918Z,42.75
2018-12-19T18:17:04.519Z,36.15
2018-12-19T18:19:32.119Z,36.68
2018-12-19T18:21:59.689Z,35.20
2018-12-19T18:24:27.267Z,33.88
2018-12-19T18:26:54.866Z,35.15
2018-12-19T18:29:22.423Z,36.00
2018-12-19T18:31:50.022Z,34.75
2018-12-19T18:34:17.613Z,33.48
2018-12-19T18:36:45.190Z,34.70
2018-12-19T18:39:12.834Z,31.27
2018-12-19T18:41:40.398Z,33.02
2018-12-19T18:44:08.027Z,36.38
2018-12-19T18:46:35.643Z,35.78
2018-12-19T18:49:03.336Z,37.00
2018-12-19T18:51:30.955Z,34.55
2018-12-19T18:53:58.503Z,38.78
2018-12-19T18:56:26.078Z,38.20
2018-12-19T18:58:53.691Z,35.73
2018-12-19T19:01:21.311Z,37.73
2018-12-19T19:03:50.392Z,35.35
2018-12-19T19:06:18.101Z,38.20
2018-12-19T19:08:46.755Z,35.45
2018-12-19T19:11:14.424Z,38.00
2018-12-19T19:13:42.023Z,40.98
2018-12-19T19:16:09.648Z,37.50
2018-12-19T19:18:37.251Z,39.00
2018-12-19T19:21:04.814Z,35.43
2018-12-19T19:23:32.422Z,37.20
2018-12-19T19:26:00.029Z,36.05
2018-12-19T19:28:27.630Z,37.28
2018-12-19T19:30:55.228Z,38.63
2018-12-19T19:33:22.833Z,46.35
2018-12-19T19:35:50.419Z,45.80
2018-12-19T19:38:18.016Z,41.30
2018-12-19T19:40:45.590Z,40.10
2018-12-19T19:43:13.318Z,39.50
2018-12-19T19:45:40.907Z,37.58
2018-12-19T19:48:08.487Z,37.73
2018-12-19T19:50:36.103Z,36.60
2018-12-19T19:53:03.700Z,34.05
2018-12-19T19:55:31.311Z,36.15
2018-12-19T19:57:59.020Z,37.23
2018-12-19T20:00:28.382Z,33.75
2018-12-19T20:02:55.960Z,39.10
2018-12-19T20:05:23.577Z,34.15
2018-12-19T20:07:51.259Z,35.70
2018-12-19T20:10:18.866Z,34.78
2018-12-19T20:12:46.435Z,37.78
2018-12-19T20:15:14.055Z,40.73
2018-12-19T20:17:41.619Z,43.50
2018-12-19T20:20:09.331Z,35.68
2018-12-19T20:22:36.899Z,35.38
2018-12-19T20:25:04.524Z,37.08
2018-12-19T20:27:32.214Z,35.00
2018-12-19T20:29:59.774Z,37.53
2018-12-19T20:32:27.490Z,33.63
2018-12-19T20:34:55.066Z,33.13
2018-12-19T20:37:22.692Z,33.92
2018-12-19T20:39:50.261Z,35.90
2018-12-19T20:42:17.985Z,39.05
2018-12-19T20:44:45.590Z,42.03
2018-12-19T20:47:13.168Z,36.85
2018-12-19T20:49:40.776Z,39.30
2018-12-19T20:52:08.330Z,37.05
2018-12-19T20:54:35.942Z,37.13
2018-12-19T20:57:03.518Z,38.78
2018-12-19T20:59:31.095Z,38.90
2018-12-19T21:01:58.832Z,38.63
2018-12-19T21:04:26.555Z,36.13
2018-12-19T21:06:54.284Z,37.58
2018-12-19T21:09:21.904Z,36.45
2018-12-19T21:11:49.593Z,41.48
2018-12-19T21:14:17.156Z,39.63
2018-12-19T21:16:50.537Z,39.10
2018-12-19T21:19:18.106Z,39.67
2018-12-19T21:21:45.706Z,38.17
2018-12-19T21:24:13.271Z,38.70
2018-12-19T21:26:40.907Z,39.05
2018-12-19T21:29:08.475Z,36.28
2018-12-19T21:31:36.088Z,36.85
2018-12-19T21:34:03.700Z,35.50
2018-12-19T21:36:31.322Z,34.08
2018-12-19T21:41:40.599Z,33.28
2018-12-19T21:44:08.163Z,36.60
2018-12-19T21:46:35.874Z,35.43
2018-12-19T21:49:03.467Z,37.50
2018-12-19T21:51:31.084Z,36.58
2018-12-19T21:53:58.838Z,35.52
2018-12-19T21:56:26.522Z,36.28
2018-12-19T21:58:54.182Z,35.48
2018-12-19T22:01:21.743Z,38.13
2018-12-19T22:03:49.347Z,32.93
2018-12-19T22:06:16.921Z,27.15
2018-12-19T22:08:44.587Z,31.85
2018-12-19T22:11:12.264Z,33.67
2018-12-19T22:13:39.828Z,31.42
2018-12-19T22:16:09.445Z,29.05
2018-12-19T22:18:41.983Z,26.90
2018-12-19T22:21:09.656Z,23.32
2018-12-19T22:23:37.301Z,23.77
2018-12-19T22:26:05.007Z,17.65
2018-12-19T22:28:32.606Z,18.40
2018-12-19T22:31:00.369Z,21.25
2018-12-19T22:33:27.931Z,21.73
2018-12-19T22:35:55.564Z,18.20
2018-12-19T22:38:23.223Z,16.12
2018-12-19T22:40:50.788Z,15.20
2018-12-19T22:43:18.514Z,17.45
2018-12-19T22:45:46.159Z,16.80
2018-12-19T22:48:13.773Z,15.90
2018-12-19T22:50:41.392Z,15.45
2018-12-19T22:53:09.129Z,14.65
2018-12-19T22:55:36.778Z,14.00
2018-12-19T22:58:04.487Z,9.45
2018-12-19T23:00:34.279Z,9.23
2018-12-19T23:03:08.105Z,5.65
2018-12-19T23:05:41.463Z,6.03
2018-12-19T23:08:09.076Z,5.35
2018-12-19T23:10:36.665Z,4.75
2018-12-19T23:13:04.375Z,6.65
2018-12-19T23:15:31.971Z,5.53
2018-12-19T23:20:55.925Z,6.00
2018-12-19T23:23:23.541Z,6.47
2018-12-19T23:25:51.172Z,6.62
2018-12-19T23:28:18.920Z,6.62
2018-12-19T23:30:46.615Z,4.72
2018-12-19T23:33:14.252Z,6.60
2018-12-19T23:35:41.868Z,5.97
2018-12-19T23:38:09.440Z,3.80
2018-12-19T23:40:37.053Z,4.80
2018-12-19T23:43:04.631Z,4.87
2018-12-19T23:45:32.323Z,5.25
2018-12-19T23:47:59.971Z,4.40
2018-12-19T23:50:27.663Z,4.95
2018-12-19T23:52:55.332Z,4.65
2018-12-19T23:55:22.940Z,5.42
2018-12-19T23:57:50.503Z,5.92
